Time;durP1;ratioP1;P1;durP2;ratioP2;P2;SDS_P1;SDS_P2;PMS_P1;PMS_P2;Temp;Humidity;BMP_temperature;BMP_pressure;BME280_temperature;BME280_humidity;BME280_pressure;Samples;Min_cycle;Max_cycle;Signal;HPM_P1;HPM_P2
2022/07/15 00:01:50;;;;;;;2.45;0.35;;;;;;;18.71;52.98;101535.34;6124483;23;20013;-93
2022/07/15 00:04:16;;;;;;;1.45;0.75;;;;;;;18.76;53.28;101538.47;6125622;23;20329;-94
2022/07/15 00:06:41;;;;;;;3.28;0.68;;;;;;;18.74;53.55;101547.53;6124795;23;20299;-92
2022/07/15 00:09:07;;;;;;;7.05;0.70;;;;;;;18.80;53.43;101553.22;6126407;23;20037;-93
2022/07/15 00:11:33;;;;;;;1.88;0.55;;;;;;;18.87;52.87;101545.53;6125980;23;20009;-94
2022/07/15 00:13:58;;;;;;;1.00;0.40;;;;;;;18.93;53.41;101538.88;6125370;23;20053;-93
2022/07/15 00:16:24;;;;;;;3.28;0.60;;;;;;;18.97;53.46;101537.63;6126010;23;20429;-92
2022/07/15 00:18:49;;;;;;;2.30;0.45;;;;;;;18.98;52.93;101532.19;6125014;23;20033;-92
2022/07/15 00:21:14;;;;;;;1.50;0.32;;;;;;;19.09;52.57;101530.41;6148532;23;20169;-94
2022/07/15 00:23:40;;;;;;;0.80;0.30;;;;;;;18.97;52.98;101525.16;6125966;23;20002;-93
2022/07/15 00:26:05;;;;;;;1.50;0.40;;;;;;;18.75;53.43;101520.78;6124754;23;20032;-93
2022/07/15 00:28:31;;;;;;;3.17;1.02;;;;;;;18.92;53.04;101524.72;6123946;23;20013;-94
2022/07/15 00:30:56;;;;;;;1.33;0.30;;;;;;;18.82;53.44;101516.69;6124376;23;20002;-92
2022/07/15 00:33:21;;;;;;;1.02;0.30;;;;;;;18.89;54.16;101527.63;6125706;23;20006;-92
2022/07/15 00:35:47;;;;;;;1.65;0.52;;;;;;;18.83;53.29;101520.19;6125708;23;20461;-94
2022/07/15 00:38:12;;;;;;;2.50;0.52;;;;;;;18.85;53.23;101528.88;6124529;23;20013;-94
2022/07/15 00:40:43;;;;;;;1.45;0.30;;;;;;;18.85;53.86;101523.53;6123852;23;20006;-92
2022/07/15 00:43:09;;;;;;;1.55;0.40;;;;;;;18.75;53.71;101531.44;6125704;23;20021;-94
2022/07/15 00:45:35;;;;;;;0.68;0.20;;;;;;;18.70;54.24;101523.03;6126844;23;19994;-92
2022/07/15 00:48:01;;;;;;;2.15;0.50;;;;;;;18.70;53.24;101531.00;6128085;23;20010;-93
2022/07/15 00:50:28;;;;;;;2.15;0.35;;;;;;;18.82;53.88;101534.47;6126314;23;20328;-93
2022/07/15 00:53:02;;;;;;;1.80;0.40;;;;;;;18.78;54.27;101527.69;6127151;23;20010;-93
2022/07/15 00:55:31;;;;;;;0.82;0.22;;;;;;;18.77;54.58;101526.81;6126815;23;20080;-93
2022/07/15 00:58:03;;;;;;;2.67;0.60;;;;;;;18.78;55.49;101522.38;6127277;23;20005;-93
2022/07/15 01:00:28;;;;;;;3.80;0.80;;;;;;;18.74;54.18;101528.91;6127517;23;20010;-94
2022/07/15 01:02:54;;;;;;;1.60;0.63;;;;;;;18.75;54.57;101522.63;6125873;23;20037;-92
2022/07/15 01:05:21;;;;;;;1.50;0.40;;;;;;;18.62;55.63;101525.47;6126201;23;20421;-94
2022/07/15 01:07:52;;;;;;;1.92;0.73;;;;;;;18.50;56.13;101530.00;6126318;23;20061;-93
2022/07/15 01:10:19;;;;;;;2.15;0.60;;;;;;;18.42;56.37;101535.97;6125957;23;20329;-93
2022/07/15 01:12:46;;;;;;;1.00;0.40;;;;;;;18.43;56.10;101531.50;6125599;23;20006;-93
2022/07/15 01:15:12;;;;;;;2.13;0.65;;;;;;;18.34;56.58;101534.91;6126205;23;20006;-94
2022/07/15 01:17:38;;;;;;;2.95;0.32;;;;;;;18.23;56.65;101523.34;6127379;23;20002;-94
2022/07/15 01:20:05;;;;;;;2.30;0.73;;;;;;;18.13;57.34;101532.22;6126010;23;20024;-93
2022/07/15 01:22:30;;;;;;;1.15;0.55;;;;;;;18.04;57.50;101524.00;6125834;23;20092;-93
2022/07/15 01:24:56;;;;;;;0.85;0.40;;;;;;;17.88;58.57;101517.44;6126538;23;20089;-93
2022/07/15 01:27:21;;;;;;;1.27;0.40;;;;;;;17.77;59.14;101508.50;6128689;23;20445;-93
2022/07/15 01:29:47;;;;;;;1.48;0.57;;;;;;;17.66;58.67;101516.47;6126507;23;20068;-94
2022/07/15 01:32:12;;;;;;;2.17;0.60;;;;;;;17.07;59.60;101517.56;6126475;23;20013;-95
2022/07/15 01:34:38;;;;;;;1.70;0.65;;;;;;;17.21;59.92;101516.50;6126863;23;20081;-94
2022/07/15 01:37:03;;;;;;;1.35;0.60;;;;;;;17.01;59.87;101512.75;6125448;23;20002;-94
2022/07/15 01:39:29;;;;;;;1.98;0.50;;;;;;;17.16;59.31;101510.69;6126963;23;20026;-93
2022/07/15 01:41:54;;;;;;;2.13;0.40;;;;;;;17.30;58.77;101521.09;6126822;23;20010;-94
2022/07/15 01:44:20;;;;;;;2.88;0.75;;;;;;;17.20;59.02;101517.44;6126404;23;20413;-93
2022/07/15 01:46:45;;;;;;;3.50;0.77;;;;;;;16.96;59.11;101525.53;6127397;23;20060;-93
2022/07/15 01:49:25;;;;;;;1.33;0.50;;;;;;;16.91;58.93;101520.56;6127217;23;20013;-93
2022/07/15 01:51:53;;;;;;;2.17;0.70;;;;;;;16.91;59.07;101530.34;6126221;23;20061;-93
2022/07/15 01:54:19;;;;;;;2.00;0.68;;;;;;;16.88;59.35;101528.75;6127294;23;20009;-93
2022/07/15 01:56:44;;;;;;;2.50;0.57;;;;;;;16.93;60.10;101526.59;6126857;23;20006;-93
2022/07/15 01:59:10;;;;;;;2.90;1.00;;;;;;;16.85;60.20;101518.41;6125803;23;20017;-93
2022/07/15 02:01:35;;;;;;;1.48;0.70;;;;;;;16.77;59.86;101526.91;6126551;23;20009;-93
2022/07/15 02:04:01;;;;;;;2.17;0.50;;;;;;;16.09;62.15;101525.81;6127099;23;20002;-93
2022/07/15 02:06:27;;;;;;;1.23;0.50;;;;;;;16.12;62.44;101519.44;6126913;23;20040;-93
2022/07/15 02:08:52;;;;;;;3.40;1.00;;;;;;;16.00;63.04;101521.19;6127472;23;20006;-93
2022/07/15 02:11:18;;;;;;;2.33;0.93;;;;;;;15.84;64.43;101527.59;6125816;23;20002;-93
2022/07/15 02:13:43;;;;;;;3.45;0.70;;;;;;;15.59;65.99;101525.00;6126416;23;20013;-92
2022/07/15 02:16:08;;;;;;;2.38;0.63;;;;;;;15.65;66.32;101527.19;6149127;23;20480;-92
2022/07/15 02:18:34;;;;;;;1.55;0.70;;;;;;;16.09;64.53;101528.44;6126345;23;20090;-93
2022/07/15 02:20:59;;;;;;;1.52;0.47;;;;;;;16.22;64.21;101531.06;6124625;23;20057;-92
2022/07/15 02:23:25;;;;;;;1.52;0.73;;;;;;;16.27;64.81;101536.84;6126367;23;20341;-93
2022/07/15 02:25:50;;;;;;;3.38;0.80;;;;;;;16.28;64.31;101527.94;6149754;23;20037;-94
2022/07/15 02:28:16;;;;;;;2.13;0.55;;;;;;;16.36;64.04;101538.81;6125961;23;20002;-93
2022/07/15 02:30:42;;;;;;;1.75;0.77;;;;;;;16.38;64.33;101541.38;6127894;23;20013;-94
2022/07/15 02:33:09;;;;;;;1.45;0.55;;;;;;;16.40;64.07;101532.34;6126488;23;20014;-94
2022/07/15 02:35:35;;;;;;;1.88;1.02;;;;;;;16.18;63.68;101527.78;6127199;23;20012;-90
2022/07/15 02:38:01;;;;;;;5.95;1.13;;;;;;;16.17;64.05;101526.09;6124752;23;20092;-92
2022/07/15 02:40:27;;;;;;;2.53;0.70;;;;;;;15.86;64.40;101531.00;6125825;23;20102;-93
2022/07/15 02:42:55;;;;;;;1.50;0.70;;;;;;;16.08;62.45;101532.06;6125868;23;20005;-88
2022/07/15 02:45:23;;;;;;;3.05;0.80;;;;;;;16.06;63.27;101537.47;6122793;23;20006;-90
2022/07/15 02:47:50;;;;;;;2.30;0.90;;;;;;;15.87;64.48;101534.47;6125498;23;20025;-90
2022/07/15 02:50:16;;;;;;;2.47;0.93;;;;;;;15.34;67.55;101536.47;6123395;23;20001;-89
2022/07/15 02:52:42;;;;;;;2.55;1.10;;;;;;;15.36;68.00;101537.19;6123751;23;20016;-89
2022/07/15 02:55:09;;;;;;;2.25;0.73;;;;;;;15.52;67.48;101534.31;6123556;23;20006;-90
2022/07/15 02:57:35;;;;;;;1.65;0.90;;;;;;;15.60;66.94;101526.66;6125322;23;20009;-91
2022/07/15 03:00:01;;;;;;;2.88;0.75;;;;;;;15.57;66.59;101524.25;6123696;23;20013;-90
2022/07/15 03:02:27;;;;;;;2.15;1.25;;;;;;;15.41;68.41;101519.22;6125060;23;20001;-91
2022/07/15 03:04:52;;;;;;;1.98;0.80;;;;;;;15.46;68.43;101517.94;6124051;23;20357;-90
2022/07/15 03:07:18;;;;;;;3.47;0.70;;;;;;;15.49;68.34;101531.91;6123546;23;20017;-91
2022/07/15 03:09:43;;;;;;;3.72;0.93;;;;;;;15.35;69.01;101525.78;6123361;23;20009;-91
2022/07/15 03:12:08;;;;;;;1.45;0.70;;;;;;;15.28;68.07;101532.44;6125019;23;20006;-91
2022/07/15 03:14:34;;;;;;;1.70;0.52;;;;;;;15.39;67.99;101527.25;6123679;23;20010;-91
2022/07/15 03:16:59;;;;;;;1.88;0.63;;;;;;;15.36;68.53;101527.44;6147937;23;20448;-90
2022/07/15 03:19:25;;;;;;;2.65;0.60;;;;;;;15.26;68.70;101529.06;6123010;23;20010;-90
2022/07/15 03:21:50;;;;;;;1.77;0.73;;;;;;;15.17;69.90;101527.06;6124776;23;20002;-90
2022/07/15 03:24:16;;;;;;;3.72;0.40;;;;;;;15.41;68.68;101524.50;6124737;23;20480;-90
2022/07/15 03:26:42;;;;;;;0.85;0.60;;;;;;;15.43;69.28;101528.72;6124929;23;20002;-91
2022/07/15 03:29:07;;;;;;;3.28;0.88;;;;;;;15.33;68.86;101516.25;6122670;23;20060;-91
2022/07/15 03:31:32;;;;;;;4.63;0.60;;;;;;;15.12;69.97;101523.88;6124934;23;20006;-91
2022/07/15 03:33:58;;;;;;;2.00;1.00;;;;;;;15.10;70.67;101525.78;6122829;23;20006;-91
2022/07/15 03:36:24;;;;;;;3.45;0.80;;;;;;;15.05;69.81;101516.38;6124973;23;20006;-91
2022/07/15 03:38:51;;;;;;;2.42;0.90;;;;;;;15.11;69.60;101515.13;6124738;23;20337;-91
2022/07/15 03:41:17;;;;;;;1.08;0.60;;;;;;;15.27;69.88;101506.94;6123649;23;20002;-91
2022/07/15 03:43:43;;;;;;;3.42;0.90;;;;;;;15.42;69.39;101526.19;6123566;23;20006;-91
2022/07/15 03:46:08;;;;;;;2.50;0.60;;;;;;;15.27;70.41;101506.94;6124281;23;20522;-92
2022/07/15 03:48:34;;;;;;;1.90;0.90;;;;;;;15.33;70.28;101516.25;6124511;23;20092;-92
2022/07/15 03:50:59;;;;;;;1.25;0.73;;;;;;;15.29;70.98;101525.38;6115545;23;20002;-91
2022/07/15 03:53:24;;;;;;;1.23;0.73;;;;;;;15.17;70.81;101508.56;6148037;23;20013;-91
2022/07/15 03:55:50;;;;;;;2.15;0.80;;;;;;;15.16;71.40;101518.28;6124777;23;20037;-91
2022/07/15 03:58:15;;;;;;;2.47;0.80;;;;;;;15.23;70.55;101511.59;6080004;23;20006;-92
2022/07/15 04:00:41;;;;;;;1.98;0.70;;;;;;;15.31;71.36;101513.72;6124954;23;20110;-92
2022/07/15 04:03:06;;;;;;;2.22;0.82;;;;;;;15.32;70.61;101504.81;6125481;23;20005;-91
2022/07/15 04:05:31;;;;;;;3.08;0.90;;;;;;;15.23;71.31;101510.78;6123723;23;20006;-91
2022/07/15 04:07:57;;;;;;;2.13;0.65;;;;;;;15.33;70.84;101518.91;6123553;23;20010;-91
2022/07/15 04:10:22;;;;;;;1.02;0.52;;;;;;;15.16;70.78;101505.03;6123451;23;20089;-92
2022/07/15 04:12:47;;;;;;;3.90;1.40;;;;;;;14.97;72.18;101500.19;6123320;23;20069;-91
2022/07/15 04:15:14;;;;;;;1.58;0.60;;;;;;;15.12;71.44;101506.22;6122432;23;20399;-90
2022/07/15 04:17:41;;;;;;;3.05;0.75;;;;;;;14.97;71.42;101500.19;6122909;23;19994;-90
2022/07/15 04:20:07;;;;;;;2.88;1.00;;;;;;;14.82;73.09;101496.78;6123974;23;20381;-90
2022/07/15 04:22:43;;;;;;;4.18;2.75;;;;;;;15.28;71.76;101503.34;6125247;23;20009;-90
2022/07/15 04:25:11;;;;;;;3.35;0.82;;;;;;;15.31;71.39;101503.13;6125551;23;20479;-90
2022/07/15 04:27:37;;;;;;;2.88;0.68;;;;;;;15.29;71.07;101505.03;6124851;23;20005;-90
2022/07/15 04:30:07;;;;;;;1.63;0.70;;;;;;;15.39;71.54;101505.25;6125256;23;19998;-90
2022/07/15 04:32:33;;;;;;;0.95;0.60;;;;;;;15.27;71.63;101504.31;6123652;23;20361;-91
2022/07/15 04:34:58;;;;;;;2.33;0.75;;;;;;;15.20;72.19;101505.69;6124686;23;20006;-91
2022/07/15 04:37:24;;;;;;;1.02;0.52;;;;;;;15.30;72.15;101506.72;6125282;23;20006;-90
2022/07/15 04:39:49;;;;;;;2.97;0.77;;;;;;;15.27;72.12;101512.25;6125161;23;20005;-91
2022/07/15 04:42:15;;;;;;;2.65;0.73;;;;;;;15.32;71.81;101506.63;6123214;23;20017;-90
2022/07/15 04:44:40;;;;;;;4.35;0.77;;;;;;;15.34;71.97;101502.91;6125206;23;20002;-90
2022/07/15 04:47:05;;;;;;;4.32;0.80;;;;;;;15.36;72.31;101519.50;6125192;23;20460;-91
2022/07/15 04:52:15;;;;;;;3.80;0.80;;;;;;;15.33;73.36;101522.41;6124411;23;20457;-90
2022/07/15 04:54:41;;;;;;;0.57;0.55;;;;;;;15.41;73.10;101516.56;6125116;23;20002;-91
2022/07/15 04:57:06;;;;;;;0.80;0.50;;;;;;;15.40;73.12;101518.38;6125044;23;20016;-90
2022/07/15 04:59:32;;;;;;;3.88;0.80;;;;;;;15.32;73.31;101514.56;6124744;23;20002;-89
2022/07/15 05:01:58;;;;;;;1.75;0.77;;;;;;;15.50;72.60;101518.56;6123370;23;20001;-90
2022/07/15 05:04:24;;;;;;;2.25;0.75;;;;;;;15.52;72.78;101523.72;6147997;23;20002;-90
2022/07/15 05:06:49;;;;;;;1.42;0.70;;;;;;;15.46;73.18;101510.00;6124366;23;20021;-90
2022/07/15 05:09:15;;;;;;;4.88;0.80;;;;;;;15.45;73.27;101524.16;6124801;23;20077;-90
2022/07/15 05:11:40;;;;;;;2.08;0.80;;;;;;;15.49;73.70;101521.31;6125422;23;20006;-90
2022/07/15 05:14:05;;;;;;;3.90;0.90;;;;;;;15.53;73.27;101509.56;6124714;23;20451;-90
2022/07/15 05:16:31;;;;;;;3.92;1.00;;;;;;;15.64;73.13;101518.41;6125797;23;20013;-90
2022/07/15 05:18:57;;;;;;;2.80;0.60;;;;;;;15.64;72.75;101522.88;6126103;23;20452;-90
2022/07/15 05:21:22;;;;;;;2.25;0.90;;;;;;;15.63;73.77;101522.00;6125378;23;20002;-90
2022/07/15 05:23:48;;;;;;;2.65;0.95;;;;;;;15.73;73.96;101527.53;6126002;23;20006;-89
2022/07/15 05:26:13;;;;;;;2.33;1.77;;;;;;;15.80;73.97;101542.03;6125839;23;20002;-90
2022/07/15 05:28:41;;;;;;;1.95;0.80;;;;;;;15.88;73.61;101548.56;6125727;23;20077;-88
2022/07/15 05:31:07;;;;;;;2.70;1.00;;;;;;;15.90;74.03;101536.06;6125774;23;20009;-91
2022/07/15 05:33:32;;;;;;;2.15;0.98;;;;;;;15.81;74.59;101542.88;6125658;23;20006;-90
2022/07/15 05:35:58;;;;;;;2.38;1.15;;;;;;;16.06;74.65;101529.53;6125331;23;20002;-90
2022/07/15 05:38:24;;;;;;;5.00;1.17;;;;;;;16.30;73.88;101533.16;6125890;23;20029;-90
2022/07/15 05:40:50;;;;;;;4.18;0.95;;;;;;;16.38;73.18;101536.06;6125550;23;20031;-91
2022/07/15 05:43:16;;;;;;;2.47;0.77;;;;;;;16.42;73.63;101541.00;6124200;23;20081;-90
2022/07/15 05:45:41;;;;;;;2.05;0.90;;;;;;;16.55;72.31;101538.31;6149047;23;19998;-90
2022/07/15 05:48:07;;;;;;;3.45;1.08;;;;;;;16.68;72.48;101540.84;6125793;23;19998;-90
2022/07/15 05:50:32;;;;;;;2.55;1.10;;;;;;;16.77;70.98;101545.47;6124927;23;20014;-90
2022/07/15 05:52:57;;;;;;;1.85;0.77;;;;;;;16.92;70.09;101538.16;6125412;23;20421;-89
2022/07/15 05:55:23;;;;;;;2.53;0.80;;;;;;;16.95;68.24;101539.75;6125702;23;20002;-90
2022/07/15 05:57:49;;;;;;;4.80;1.83;;;;;;;17.00;67.46;101535.78;6125886;23;20081;-90
2022/07/15 06:00:14;;;;;;;2.75;1.40;;;;;;;17.04;67.48;101539.03;6125664;23;20017;-90
2022/07/15 06:02:40;;;;;;;2.95;0.90;;;;;;;17.21;66.78;101529.78;6125585;23;20025;-90
2022/07/15 06:05:06;;;;;;;1.45;0.93;;;;;;;17.15;66.33;101535.56;6124678;23;20002;-90
2022/07/15 06:07:32;;;;;;;3.05;1.20;;;;;;;17.22;66.38;101534.13;6125229;23;20006;-90
2022/07/15 06:09:58;;;;;;;2.20;1.10;;;;;;;17.31;66.02;101538.69;6125454;23;20006;-90
2022/07/15 06:12:23;;;;;;;3.47;1.35;;;;;;;17.45;66.43;101542.91;6148644;23;20079;-89
2022/07/15 06:14:48;;;;;;;2.45;0.85;;;;;;;17.64;66.97;101544.97;6125185;23;20337;-90
2022/07/15 06:17:14;;;;;;;3.45;1.40;;;;;;;17.92;66.58;101535.66;6126052;23;20365;-90
2022/07/15 06:19:40;;;;;;;3.00;0.95;;;;;;;18.37;65.56;101540.00;6123253;23;20013;-91
2022/07/15 06:22:06;;;;;;;3.55;1.23;;;;;;;18.61;64.18;101529.94;6124519;23;20492;-92
2022/07/15 06:24:32;;;;;;;2.22;1.02;;;;;;;19.25;61.95;101517.44;6123845;23;20429;-93
2022/07/15 06:26:58;;;;;;;4.00;1.30;;;;;;;19.39;61.29;101527.75;6125676;23;20013;-93
2022/07/15 06:29:23;;;;;;;2.47;1.00;;;;;;;19.63;59.91;101529.22;6125654;23;20041;-92
2022/07/15 06:31:49;;;;;;;4.65;1.50;;;;;;;20.26;58.70;101536.94;6148420;23;20334;-91
2022/07/15 06:34:15;;;;;;;8.77;1.27;;;;;;;21.05;55.23;101527.88;6124504;23;20013;-92
2022/07/15 06:36:41;;;;;;;1.77;1.13;;;;;;;24.05;46.42;101524.44;6123770;23;20005;-91
2022/07/15 06:39:07;;;;;;;3.13;1.00;;;;;;;24.33;44.62;101524.97;6123337;23;20012;-92
2022/07/15 06:41:33;;;;;;;2.92;0.70;;;;;;;26.30;41.09;101523.41;6124860;23;20002;-92
2022/07/15 06:44:00;;;;;;;4.50;0.98;;;;;;;27.58;39.57;101527.81;6123106;23;20322;-92
2022/07/15 06:46:25;;;;;;;3.63;0.90;;;;;;;29.66;34.80;101521.16;6119331;23;20005;-90
2022/07/15 06:48:51;;;;;;;3.13;1.10;;;;;;;32.04;30.46;101526.66;6118561;23;20517;-91
2022/07/15 06:51:16;;;;;;;3.17;1.00;;;;;;;33.33;28.70;101524.19;6117806;23;20016;-92
2022/07/15 06:53:41;;;;;;;6.68;0.98;;;;;;;35.03;26.13;101523.81;6119813;23;20006;-91
2022/07/15 06:56:07;;;;;;;4.60;1.10;;;;;;;36.12;25.16;101514.72;6117903;23;20072;-91
2022/07/15 06:58:32;;;;;;;3.03;1.10;;;;;;;36.07;24.69;101514.63;6140399;23;20010;-91
2022/07/15 07:00:59;;;;;;;2.42;0.93;;;;;;;37.01;24.51;101515.75;6118005;23;20014;-91
2022/07/15 07:03:25;;;;;;;2.45;0.90;;;;;;;37.95;23.00;101516.53;6118772;23;20214;-91
2022/07/15 07:05:50;;;;;;;3.05;0.90;;;;;;;38.89;21.92;101504.03;6117566;23;20030;-91
2022/07/15 07:08:15;;;;;;;;;;;;;;;39.21;21.84;101503.88;6118761;23;20044;-90
2022/07/15 07:10:41;;;;;;;4.53;0.73;;;;;;;40.29;20.41;101503.16;6118710;23;19947;-91
2022/07/15 07:13:06;;;;;;;;;;;;;;;40.72;20.41;101509.13;6141692;23;20045;-88
2022/07/15 07:15:31;;;;;;;;;;;;;;;41.05;20.22;101504.06;6118576;23;19912;-89
2022/07/15 07:17:56;;;;;;;;;;;;;;;40.97;20.16;101509.06;6118335;23;19912;-88
2022/07/15 07:20:21;;;;;;;;;;;;;;;41.89;19.62;101506.84;6116587;23;19912;-90
2022/07/15 07:22:47;;;;;;;;;;;;;;;42.71;19.40;101506.06;6115366;23;19913;-94
2022/07/15 07:25:12;;;;;;;;;;;;;;;44.68;17.59;101509.03;6116033;23;20417;-89
2022/07/15 07:27:37;;;;;;;;;;;;;;;43.71;18.14;101493.09;6117866;23;20248;-89
2022/07/15 07:30:04;;;;;;;;;;;;;;;44.39;17.12;101499.06;6118977;23;20277;-89
2022/07/15 07:32:29;;;;;;;;;;;;;;;43.83;17.71;101487.06;6118397;23;19913;-90
2022/07/15 07:34:54;;;;;;;;;;;;;;;41.23;19.61;101496.00;6118268;23;19913;-88
2022/07/15 07:37:20;;;;;;;;;;;;;;;41.44;19.62;101493.13;6119306;23;20217;-89
2022/07/15 07:39:45;;;;;;;;;;;;;;;42.54;18.02;101482.53;6122990;23;20349;-89
2022/07/15 07:42:10;;;;;;;;;;;;;;;39.10;21.52;101482.97;6124592;23;20387;-88
2022/07/15 07:44:36;;;;;;;;;;;;;;;37.65;23.11;101490.50;6124858;23;19913;-88
2022/07/15 07:47:02;;;;;;;;;;;;;;;37.30;23.26;101478.06;6125166;23;19916;-88
2022/07/15 07:49:27;;;;;;;;;;;;;;;38.17;22.40;101478.06;6124355;23;19908;-89
2022/07/15 07:51:52;;;;;;;;;;;;;;;39.65;21.04;101475.13;6124202;23;20008;-89
2022/07/15 07:54:18;;;;;;;;;;;;;;;41.01;19.77;101462.50;6122630;23;19905;-89
2022/07/15 07:56:45;;;;;;;;;;;;;;;43.10;18.04;101449.78;6125358;23;19940;-89
2022/07/15 07:59:10;;;;;;;;;;;;;;;41.44;19.16;101462.00;6125074;23;20316;-89
2022/07/15 08:01:35;;;;;;;;;;;;;;;40.81;19.58;101460.69;6124966;23;19915;-89
2022/07/15 08:04:01;;;;;;;;;;;;;;;39.20;21.27;101454.69;6123422;23;19909;-89
2022/07/15 08:06:26;;;;;;;;;;;;;;;37.66;23.17;101467.47;6124519;23;20218;-89
2022/07/15 08:08:51;;;;;;;;;;;;;;;38.56;21.35;101456.66;6125164;23;19942;-89
2022/07/15 08:11:19;;;;;;;;;;;;;;;37.76;22.23;101464.84;6124594;23;20287;-89
2022/07/15 08:13:45;;;;;;;;;;;;;;;39.54;20.36;101459.75;6124714;23;20332;-89
2022/07/15 08:16:10;;;;;;;;;;;;;;;39.42;20.43;101446.25;6124733;23;19916;-89
2022/07/15 08:18:36;;;;;;;;;;;;;;;39.83;20.45;101452.59;6124619;23;19913;-89
2022/07/15 08:21:03;;;;;;;;;;;;;;;40.50;19.46;101447.00;6122231;23;19909;-89
2022/07/15 08:23:28;;;;;;;;;;;;;;;41.94;18.55;101440.63;6123547;23;19909;-86
2022/07/15 08:25:53;;;;;;;;;;;;;;;37.77;20.98;101443.75;6124267;23;19908;-88
2022/07/15 08:28:19;;;;;;;;;;;;;;;38.04;21.25;101438.19;6124795;23;19909;-88
2022/07/15 08:30:45;;;;;;;;;;;;;;;40.54;17.99;101450.84;6123825;23;19979;-92
2022/07/15 08:33:10;;;;;;;;;;;;;;;42.45;16.67;101387.66;6124111;23;19913;-89
2022/07/15 08:35:36;;;;;;;;;;;;;;;42.97;15.96;101358.25;6125365;23;19936;-89
2022/07/15 08:38:06;;;;;;;1.13;0.30;;;;;;;42.26;17.54;101448.28;6123925;23;20075;-85
2022/07/15 08:40:32;;;;;;;1.65;0.45;;;;;;;42.56;16.88;101443.59;6124181;23;20009;-88
2022/07/15 08:42:57;;;;;;;4.43;0.45;;;;;;;40.88;17.93;101444.69;6122314;23;20001;-87
2022/07/15 08:45:23;;;;;;;1.13;0.28;;;;;;;39.39;19.54;101442.09;6124345;23;20006;-87
2022/07/15 08:47:51;;;;;;;1.75;0.50;;;;;;;38.81;21.72;101433.16;6123643;23;20009;-87
2022/07/15 08:50:17;;;;;;;2.75;0.60;;;;;;;38.53;20.35;101434.41;6123770;23;20010;-88
2022/07/15 08:52:44;;;;;;;1.70;0.35;;;;;;;39.98;19.61;101431.72;6123935;23;20013;-88
2022/07/15 08:55:10;;;;;;;;;;;;;;;40.79;19.03;101440.88;6124186;23;20010;-88
2022/07/15 08:57:35;;;;;;;;;;;;;;;39.82;18.93;101434.44;6123507;23;19909;-88
2022/07/15 09:00:01;;;;;;;;;;;;;;;38.06;21.42;101436.06;6124120;23;19913;-88
2022/07/15 09:02:26;;;;;;;;;;;;;;;41.02;20.60;101431.91;6124093;23;19909;-86
2022/07/15 09:05:11;;;;;;;;;;;;;;;41.15;19.22;101430.44;6125015;23;20317;-86
2022/07/15 09:07:57;;;;;;;;;;;;;;;40.80;19.02;101428.72;6125609;23;19917;-86
2022/07/15 09:10:23;;;;;;;;;;;;;;;39.29;19.92;101416.56;6125849;23;19913;-87
2022/07/15 09:12:53;;;;;;;1.38;0.60;;;;;;;40.69;17.97;101419.69;6125634;23;19999;-85
2022/07/15 09:15:33;;;;;;;0.93;0.38;;;;;;;40.42;19.65;101420.88;6125733;23;20025;-86
2022/07/15 09:18:14;;;;;;;4.90;0.47;;;;;;;41.21;18.95;101415.56;6124904;23;20456;-87
2022/07/15 09:20:42;;;;;;;0.85;0.50;;;;;;;40.71;18.84;101422.97;6125554;23;20009;-87
2022/07/15 09:23:09;;;;;;;1.40;0.40;;;;;;;41.26;19.91;101409.19;6124909;23;19998;-87
2022/07/15 09:25:36;;;;;;;3.08;0.60;;;;;;;41.01;18.67;101422.00;6124939;23;20226;-86
2022/07/15 09:28:04;;;;;;;2.20;0.35;;;;;;;42.61;17.98;101412.31;6125293;23;20006;-88
2022/07/15 09:33:36;;;;;;;1.77;0.60;;;;;;;41.22;18.46;101413.66;6125715;23;20025;-85
2022/07/15 09:36:11;;;;;;;1.58;0.40;;;;;;;42.92;17.21;101407.22;6125993;23;20064;-89
2022/07/15 09:38:46;;;;;;;3.65;0.63;;;;;;;43.95;16.75;101412.69;6125477;23;19998;-88
2022/07/15 09:41:12;;;;;;;;;;;;;;;43.70;16.52;101416.75;6126808;23;20005;-88
2022/07/15 09:43:44;;;;;;;;;;;;;;;44.46;16.39;101408.09;6125831;23;20335;-86
2022/07/15 09:46:10;;;;;;;;;;;;;;;44.71;16.58;101414.22;6126926;23;19908;-86
2022/07/15 09:48:38;;;;;;;;;;;;;;;39.23;20.72;101423.97;6126069;23;19916;-87
2022/07/15 09:51:04;;;;;;;;;;;;;;;39.24;20.56;101417.34;6126575;23;20375;-87
2022/07/15 09:53:30;;;;;;;;;;;;;;;41.16;19.04;101423.03;6125952;23;19909;-87
2022/07/15 09:55:55;;;;;;;;;;;;;;;40.94;19.35;101418.75;6124648;23;20284;-87
2022/07/15 09:58:21;;;;;;;;;;;;;;;40.25;19.68;101418.44;6125518;23;19924;-88
2022/07/15 10:00:46;;;;;;;;;;;;;;;39.25;20.50;101424.50;6125426;23;19913;-88
2022/07/15 10:03:12;;;;;;;;;;;;;;;41.52;19.26;101414.50;6125274;23;19993;-88
2022/07/15 10:05:39;;;;;;;2.95;0.55;;;;;;;41.56;18.71;101415.56;6125417;23;19913;-88
2022/07/15 10:08:08;;;;;;;2.58;0.88;;;;;;;40.34;20.14;101417.91;6124697;23;20029;-88
2022/07/15 10:10:35;;;;;;;2.13;0.40;;;;;;;38.57;21.71;101419.06;6125187;23;20429;-89
2022/07/15 10:13:06;;;;;;;2.80;0.45;;;;;;;37.91;21.89;101420.28;6125353;23;20009;-86
2022/07/15 10:15:46;;;;;;;;;;;;;;;35.85;24.34;101422.44;6125200;23;20009;-87
2022/07/15 10:18:11;;;;;;;;;;;;;;;37.79;21.84;101414.16;6125701;23;19983;-86
2022/07/15 10:20:46;;;;;;;;;;;;;;;39.88;19.75;101410.56;6125379;23;19948;-88
2022/07/15 10:23:37;;;;;;;4.28;0.50;;;;;;;40.48;20.09;101407.94;6147098;23;20042;-88
2022/07/15 10:26:08;;;;;;;;;;;;;;;40.61;19.62;101412.00;6124174;23;20005;-87
2022/07/15 10:28:50;;;;;;;;;;;;;;;40.06;20.33;101403.63;6125259;23;19909;-87
2022/07/15 10:31:17;;;;;;;0.60;0.30;;;;;;;40.80;19.41;101414.97;6125350;23;19923;-87
2022/07/15 10:34:02;;;;;;;3.80;0.68;;;;;;;40.39;20.49;101404.13;6124643;23;20002;-88
2022/07/15 10:37:06;;;;;;;2.42;0.70;;;;;;;40.02;21.27;101410.81;6124549;23;20032;-88
2022/07/15 10:39:55;;;;;;;1.88;0.70;;;;;;;41.45;19.80;101411.25;6108601;23;20088;-89
2022/07/15 10:42:21;;;;;;;4.32;0.70;;;;;;;40.90;19.61;101417.69;6123867;23;20032;-88
2022/07/15 10:45:06;;;;;;;2.38;0.73;;;;;;;41.58;18.83;101408.66;6124649;23;20475;-88
2022/07/15 10:47:32;;;;;;;2.67;0.75;;;;;;;40.25;19.60;101410.19;6125101;23;20028;-87
2022/07/15 10:49:57;;;;;;;2.83;0.60;;;;;;;40.57;19.46;101402.69;6123627;23;20429;-88
2022/07/15 10:52:29;;;;;;;1.65;0.47;;;;;;;39.71;20.32;101402.56;6123966;23;20006;-87
2022/07/15 10:54:55;;;;;;;2.65;0.40;;;;;;;37.54;21.82;101401.88;6123833;23;20006;-88
2022/07/15 10:57:41;;;;;;;1.57;0.70;;;;;;;39.25;20.41;101402.53;6123348;23;20006;-88
2022/07/15 11:00:25;;;;;;;4.28;0.60;;;;;;;40.22;19.78;101401.66;6118169;23;20629;-87
2022/07/15 11:03:06;;;;;;;3.25;0.68;;;;;;;40.91;18.79;101389.03;6123607;23;20010;-85
2022/07/15 11:05:32;;;;;;;1.33;0.60;;;;;;;40.72;19.84;101396.25;6124015;23;20006;-88
2022/07/15 11:07:58;;;;;;;2.40;0.60;;;;;;;39.13;19.91;101386.31;6123670;23;20451;-87
2022/07/15 11:10:24;;;;;;;3.55;0.60;;;;;;;38.57;20.79;101392.47;6124626;23;20009;-88
2022/07/15 11:12:49;;;;;;;1.17;0.52;;;;;;;38.81;20.16;101390.06;6124215;23;20006;-89
2022/07/15 11:15:16;;;;;;;2.10;0.67;;;;;;;38.95;19.81;101390.38;6123786;23;20064;-89
2022/07/15 11:17:47;;;;;;;1.80;0.70;;;;;;;40.19;19.12;101383.81;6124604;23;20225;-87
2022/07/15 11:20:38;;;;;;;2.65;0.70;;;;;;;39.51;19.56;101381.41;6123649;23;20002;-87
2022/07/15 11:23:06;;;;;;;7.63;0.82;;;;;;;36.55;22.19;101384.63;6123934;23;20028;-87
2022/07/15 11:25:35;;;;;;;;;;;;;;;35.06;23.88;101384.97;6124259;23;20038;-87
2022/07/15 11:28:12;;;;;;;2.78;0.63;;;;;;;34.94;24.27;101386.94;6123364;23;20328;-88
2022/07/15 11:30:42;;;;;;;2.58;1.00;;;;;;;35.66;23.75;101385.50;6124888;23;20294;-87
2022/07/15 11:33:10;;;;;;;1.52;0.77;;;;;;;36.68;22.66;101373.34;6123823;23;20419;-88
2022/07/15 11:35:52;;;;;;;4.18;1.13;;;;;;;37.49;23.64;101382.66;6124381;23;20459;-87
2022/07/15 11:38:20;;;;;;;3.80;0.80;;;;;;;37.22;22.36;101372.56;6124422;23;20056;-88
2022/07/15 11:46:18;;;;;;;1.30;0.60;;;;;;;34.06;26.36;101367.00;6124086;23;20084;-88
2022/07/15 11:48:44;;;;;;;4.93;1.00;;;;;;;32.48;28.51;101378.03;6124405;23;20446;-88
2022/07/15 11:51:10;;;;;;;2.92;0.90;;;;;;;33.64;27.52;101372.56;6124167;23;20320;-88